sensor_id;sensor_type;location;lat;lon;timestamp;P1;durP1;ratioP1;P2;durP2;ratioP2
17965;SDS011;9108;53.204;10.424;2023-04-24T00:02:26;7.18;;;4.53;;
17965;SDS011;9108;53.204;10.424;2023-04-24T00:04:55;7.20;;;4.60;;
17965;SDS011;9108;53.204;10.424;2023-04-24T00:07:22;8.50;;;4.70;;
17965;SDS011;9108;53.204;10.424;2023-04-24T00:09:52;6.07;;;4.18;;
17965;SDS011;9108;53.204;10.424;2023-04-24T00:12:19;6.47;;;4.55;;
17965;SDS011;9108;53.204;10.424;2023-04-24T00:14:46;8.05;;;4.50;;
17965;SDS011;9108;53.204;10.424;2023-04-24T00:17:14;8.13;;;4.65;;
17965;SDS011;9108;53.204;10.424;2023-04-24T00:19:41;7.30;;;4.50;;
17965;SDS011;9108;53.204;10.424;2023-04-24T00:22:09;8.10;;;4.70;;
17965;SDS011;9108;53.204;10.424;2023-04-24T00:24:38;8.88;;;4.65;;
17965;SDS011;9108;53.204;10.424;2023-04-24T00:27:05;7.83;;;4.67;;
17965;SDS011;9108;53.204;10.424;2023-04-24T00:29:32;6.97;;;4.60;;
17965;SDS011;9108;53.204;10.424;2023-04-24T00:32:00;10.63;;;5.10;;
17965;SDS011;9108;53.204;10.424;2023-04-24T00:34:27;7.93;;;4.80;;
17965;SDS011;9108;53.204;10.424;2023-04-24T00:36:54;7.90;;;4.82;;
17965;SDS011;9108;53.204;10.424;2023-04-24T00:39:23;8.02;;;4.80;;
17965;SDS011;9108;53.204;10.424;2023-04-24T00:41:50;8.70;;;4.90;;
17965;SDS011;9108;53.204;10.424;2023-04-24T00:44:20;8.00;;;4.90;;
17965;SDS011;9108;53.204;10.424;2023-04-24T00:46:48;7.40;;;4.40;;
17965;SDS011;9108;53.204;10.424;2023-04-24T00:49:19;6.57;;;4.22;;
17965;SDS011;9108;53.204;10.424;2023-04-24T00:51:47;8.30;;;4.47;;
17965;SDS011;9108;53.204;10.424;2023-04-24T00:54:16;6.78;;;4.03;;
17965;SDS011;9108;53.204;10.424;2023-04-24T00:56:45;6.72;;;4.20;;
17965;SDS011;9108;53.204;10.424;2023-04-24T00:59:13;8.93;;;4.25;;
17965;SDS011;9108;53.204;10.424;2023-04-24T01:01:40;6.20;;;3.90;;
17965;SDS011;9108;53.204;10.424;2023-04-24T01:04:07;7.87;;;3.80;;
17965;SDS011;9108;53.204;10.424;2023-04-24T01:06:36;6.95;;;3.95;;
17965;SDS011;9108;53.204;10.424;2023-04-24T01:09:04;6.97;;;4.05;;
17965;SDS011;9108;53.204;10.424;2023-04-24T01:11:32;7.50;;;3.88;;
17965;SDS011;9108;53.204;10.424;2023-04-24T01:14:01;6.03;;;3.95;;
17965;SDS011;9108;53.204;10.424;2023-04-24T01:16:28;6.03;;;3.70;;
17965;SDS011;9108;53.204;10.424;2023-04-24T01:18:55;7.38;;;3.80;;
17965;SDS011;9108;53.204;10.424;2023-04-24T01:21:23;6.90;;;4.00;;
17965;SDS011;9108;53.204;10.424;2023-04-24T01:23:54;6.88;;;3.97;;
17965;SDS011;9108;53.204;10.424;2023-04-24T01:26:24;6.57;;;3.80;;
17965;SDS011;9108;53.204;10.424;2023-04-24T01:28:52;5.87;;;3.80;;
17965;SDS011;9108;53.204;10.424;2023-04-24T01:31:22;5.72;;;3.55;;
17965;SDS011;9108;53.204;10.424;2023-04-24T01:33:50;6.45;;;3.70;;
17965;SDS011;9108;53.204;10.424;2023-04-24T01:36:17;5.75;;;3.17;;
17965;SDS011;9108;53.204;10.424;2023-04-24T01:38:45;4.65;;;3.10;;
17965;SDS011;9108;53.204;10.424;2023-04-24T01:41:13;4.82;;;2.95;;
17965;SDS011;9108;53.204;10.424;2023-04-24T01:43:40;4.82;;;2.88;;
17965;SDS011;9108;53.204;10.424;2023-04-24T01:46:14;5.15;;;2.83;;
17965;SDS011;9108;53.204;10.424;2023-04-24T01:48:44;3.67;;;2.60;;
17965;SDS011;9108;53.204;10.424;2023-04-24T01:51:11;4.70;;;2.70;;
17965;SDS011;9108;53.204;10.424;2023-04-24T01:53:39;3.97;;;2.40;;
17965;SDS011;9108;53.204;10.424;2023-04-24T01:56:06;3.83;;;2.42;;
17965;SDS011;9108;53.204;10.424;2023-04-24T01:58:35;5.15;;;2.00;;
17965;SDS011;9108;53.204;10.424;2023-04-24T02:01:02;5.20;;;2.13;;
17965;SDS011;9108;53.204;10.424;2023-04-24T02:03:29;4.47;;;2.10;;
17965;SDS011;9108;53.204;10.424;2023-04-24T02:05:56;3.00;;;1.97;;
17965;SDS011;9108;53.204;10.424;2023-04-24T02:08:24;3.63;;;1.92;;
17965;SDS011;9108;53.204;10.424;2023-04-24T02:10:51;3.10;;;1.90;;
17965;SDS011;9108;53.204;10.424;2023-04-24T02:13:18;3.42;;;1.92;;
17965;SDS011;9108;53.204;10.424;2023-04-24T02:15:47;4.38;;;2.08;;
17965;SDS011;9108;53.204;10.424;2023-04-24T02:18:14;3.25;;;1.88;;
17965;SDS011;9108;53.204;10.424;2023-04-24T02:20:42;3.55;;;1.92;;
17965;SDS011;9108;53.204;10.424;2023-04-24T02:23:12;3.40;;;1.90;;
17965;SDS011;9108;53.204;10.424;2023-04-24T02:25:39;3.72;;;2.10;;
17965;SDS011;9108;53.204;10.424;2023-04-24T02:28:06;2.88;;;1.80;;
17965;SDS011;9108;53.204;10.424;2023-04-24T02:30:34;5.32;;;1.90;;
17965;SDS011;9108;53.204;10.424;2023-04-24T02:33:02;2.83;;;1.80;;
17965;SDS011;9108;53.204;10.424;2023-04-24T02:35:30;3.65;;;1.80;;
17965;SDS011;9108;53.204;10.424;2023-04-24T02:37:57;4.93;;;1.73;;
17965;SDS011;9108;53.204;10.424;2023-04-24T02:40:24;2.60;;;1.70;;
17965;SDS011;9108;53.204;10.424;2023-04-24T02:42:51;4.07;;;1.67;;
17965;SDS011;9108;53.204;10.424;2023-04-24T02:45:19;2.80;;;1.70;;
17965;SDS011;9108;53.204;10.424;2023-04-24T02:47:46;3.15;;;1.60;;
17965;SDS011;9108;53.204;10.424;2023-04-24T02:50:14;2.83;;;1.50;;
17965;SDS011;9108;53.204;10.424;2023-04-24T02:52:42;3.10;;;1.60;;
17965;SDS011;9108;53.204;10.424;2023-04-24T02:55:09;2.70;;;1.70;;
17965;SDS011;9108;53.204;10.424;2023-04-24T02:57:39;3.13;;;1.58;;
17965;SDS011;9108;53.204;10.424;2023-04-24T03:00:10;2.60;;;1.40;;
17965;SDS011;9108;53.204;10.424;2023-04-24T03:02:38;2.70;;;1.50;;
17965;SDS011;9108;53.204;10.424;2023-04-24T03:05:05;2.50;;;1.30;;
17965;SDS011;9108;53.204;10.424;2023-04-24T03:07:36;3.20;;;1.30;;
17965;SDS011;9108;53.204;10.424;2023-04-24T03:10:03;1.95;;;1.30;;
17965;SDS011;9108;53.204;10.424;2023-04-24T03:12:31;2.00;;;1.17;;
17965;SDS011;9108;53.204;10.424;2023-04-24T03:14:58;2.65;;;1.30;;
17965;SDS011;9108;53.204;10.424;2023-04-24T03:17:25;2.47;;;1.30;;
17965;SDS011;9108;53.204;10.424;2023-04-24T03:19:52;2.42;;;1.20;;
17965;SDS011;9108;53.204;10.424;2023-04-24T03:22:20;2.45;;;1.30;;
17965;SDS011;9108;53.204;10.424;2023-04-24T03:24:48;2.40;;;1.15;;
17965;SDS011;9108;53.204;10.424;2023-04-24T03:27:15;1.80;;;1.20;;
17965;SDS011;9108;53.204;10.424;2023-04-24T03:29:43;2.45;;;0.90;;
17965;SDS011;9108;53.204;10.424;2023-04-24T03:32:12;3.10;;;1.20;;
17965;SDS011;9108;53.204;10.424;2023-04-24T03:34:40;2.13;;;1.10;;
17965;SDS011;9108;53.204;10.424;2023-04-24T03:37:07;1.85;;;1.08;;
17965;SDS011;9108;53.204;10.424;2023-04-24T03:39:34;2.38;;;1.10;;
17965;SDS011;9108;53.204;10.424;2023-04-24T03:42:03;1.77;;;1.08;;
17965;SDS011;9108;53.204;10.424;2023-04-24T03:44:32;1.35;;;1.00;;
17965;SDS011;9108;53.204;10.424;2023-04-24T03:46:59;1.52;;;1.00;;
17965;SDS011;9108;53.204;10.424;2023-04-24T03:49:27;1.38;;;0.90;;
17965;SDS011;9108;53.204;10.424;2023-04-24T03:51:54;1.92;;;1.00;;
17965;SDS011;9108;53.204;10.424;2023-04-24T03:54:23;1.50;;;0.98;;
17965;SDS011;9108;53.204;10.424;2023-04-24T03:56:51;1.65;;;1.00;;
17965;SDS011;9108;53.204;10.424;2023-04-24T03:59:19;2.08;;;1.10;;
17965;SDS011;9108;53.204;10.424;2023-04-24T04:01:46;2.22;;;1.00;;
17965;SDS011;9108;53.204;10.424;2023-04-24T04:04:14;3.15;;;0.98;;
17965;SDS011;9108;53.204;10.424;2023-04-24T04:06:41;1.75;;;1.15;;
17965;SDS011;9108;53.204;10.424;2023-04-24T04:09:09;2.30;;;1.20;;
17965;SDS011;9108;53.204;10.424;2023-04-24T04:11:43;1.50;;;1.00;;
17965;SDS011;9108;53.204;10.424;2023-04-24T04:14:10;3.10;;;1.03;;
17965;SDS011;9108;53.204;10.424;2023-04-24T04:16:38;2.47;;;0.90;;
17965;SDS011;9108;53.204;10.424;2023-04-24T04:19:06;2.38;;;1.00;;
17965;SDS011;9108;53.204;10.424;2023-04-24T04:21:33;2.97;;;1.00;;
17965;SDS011;9108;53.204;10.424;2023-04-24T04:24:01;1.85;;;0.90;;
17965;SDS011;9108;53.204;10.424;2023-04-24T04:26:30;2.40;;;1.00;;
17965;SDS011;9108;53.204;10.424;2023-04-24T04:28:58;1.50;;;1.02;;
17965;SDS011;9108;53.204;10.424;2023-04-24T04:31:25;1.75;;;0.95;;
17965;SDS011;9108;53.204;10.424;2023-04-24T04:33:54;1.80;;;0.90;;
17965;SDS011;9108;53.204;10.424;2023-04-24T04:36:21;1.73;;;0.90;;
17965;SDS011;9108;53.204;10.424;2023-04-24T04:38:52;2.95;;;0.90;;
17965;SDS011;9108;53.204;10.424;2023-04-24T04:41:22;2.08;;;0.80;;
17965;SDS011;9108;53.204;10.424;2023-04-24T04:43:50;1.42;;;0.90;;
17965;SDS011;9108;53.204;10.424;2023-04-24T04:46:17;1.90;;;0.80;;
17965;SDS011;9108;53.204;10.424;2023-04-24T04:48:45;1.52;;;0.80;;
17965;SDS011;9108;53.204;10.424;2023-04-24T04:51:22;1.73;;;0.80;;
17965;SDS011;9108;53.204;10.424;2023-04-24T04:53:54;1.10;;;0.75;;
17965;SDS011;9108;53.204;10.424;2023-04-24T04:56:22;1.30;;;0.80;;
17965;SDS011;9108;53.204;10.424;2023-04-24T04:59:06;1.00;;;0.70;;
